sensor_id;sensor_type;location;lat;lon;timestamp;pressure;altitude;pressure_sealevel;temperature;humidity
62739;BME280;48788;48.074;13.000;2024-01-07T00:00:28;94574.28;;;-0.42;100.00
62739;BME280;48788;48.074;13.000;2024-01-07T00:02:55;94582.56;;;-0.46;100.00
62739;BME280;48788;48.074;13.000;2024-01-07T00:05:20;94575.13;;;-0.49;100.00
62739;BME280;48788;48.074;13.000;2024-01-07T00:07:46;94578.00;;;-0.44;100.00
62739;BME280;48788;48.074;13.000;2024-01-07T00:10:13;94570.53;;;-0.47;100.00
62739;BME280;48788;48.074;13.000;2024-01-07T00:12:39;94575.75;;;-0.47;100.00
62739;BME280;48788;48.074;13.000;2024-01-07T00:15:04;94569.88;;;-0.41;100.00
62739;BME280;48788;48.074;13.000;2024-01-07T00:17:30;94568.41;;;-0.44;100.00
62739;BME280;48788;48.074;13.000;2024-01-07T00:19:55;94570.03;;;-0.43;100.00
62739;BME280;48788;48.074;13.000;2024-01-07T00:22:21;94572.16;;;-0.46;100.00
62739;BME280;48788;48.074;13.000;2024-01-07T00:24:46;94571.50;;;-0.40;100.00
62739;BME280;48788;48.074;13.000;2024-01-07T00:27:12;94564.84;;;-0.43;100.00
62739;BME280;48788;48.074;13.000;2024-01-07T00:29:37;94566.47;;;-0.42;100.00
62739;BME280;48788;48.074;13.000;2024-01-07T00:32:03;94564.84;;;-0.43;100.00
62739;BME280;48788;48.074;13.000;2024-01-07T00:34:29;94567.31;;;-0.49;100.00
62739;BME280;48788;48.074;13.000;2024-01-07T00:36:54;94575.25;;;-0.43;100.00
62739;BME280;48788;48.074;13.000;2024-01-07T00:39:20;94569.22;;;-0.43;100.00
62739;BME280;48788;48.074;13.000;2024-01-07T00:41:46;94571.03;;;-0.44;100.00
62739;BME280;48788;48.074;13.000;2024-01-07T00:44:11;94572.66;;;-0.43;100.00
62739;BME280;48788;48.074;13.000;2024-01-07T00:46:38;94578.66;;;-0.42;100.00
62739;BME280;48788;48.074;13.000;2024-01-07T00:49:03;94569.06;;;-0.42;100.00
62739;BME280;48788;48.074;13.000;2024-01-07T00:51:29;94577.69;;;-0.41;100.00
62739;BME280;48788;48.074;13.000;2024-01-07T00:53:54;94574.13;;;-0.40;100.00
62739;BME280;48788;48.074;13.000;2024-01-07T00:56:19;94571.19;;;-0.45;100.00
62739;BME280;48788;48.074;13.000;2024-01-07T00:58:45;94570.22;;;-0.44;100.00
62739;BME280;48788;48.074;13.000;2024-01-07T01:01:10;94573.31;;;-0.41;100.00
62739;BME280;48788;48.074;13.000;2024-01-07T01:03:36;94572.47;;;-0.41;100.00
62739;BME280;48788;48.074;13.000;2024-01-07T01:06:01;94572.13;;;-0.38;100.00
62739;BME280;48788;48.074;13.000;2024-01-07T01:08:27;94584.69;;;-0.42;100.00
62739;BME280;48788;48.074;13.000;2024-01-07T01:10:53;94578.50;;;-0.41;100.00
62739;BME280;48788;48.074;13.000;2024-01-07T01:13:18;94577.03;;;-0.43;100.00
62739;BME280;48788;48.074;13.000;2024-01-07T01:15:44;94576.88;;;-0.42;100.00
62739;BME280;48788;48.074;13.000;2024-01-07T01:18:09;94582.72;;;-0.40;100.00
62739;BME280;48788;48.074;13.000;2024-01-07T01:20:35;94581.09;;;-0.41;100.00
62739;BME280;48788;48.074;13.000;2024-01-07T01:23:00;94579.16;;;-0.47;100.00
62739;BME280;48788;48.074;13.000;2024-01-07T01:25:26;94583.53;;;-0.47;100.00
62739;BME280;48788;48.074;13.000;2024-01-07T01:27:52;94589.41;;;-0.45;100.00
62739;BME280;48788;48.074;13.000;2024-01-07T01:30:18;94588.75;;;-0.47;100.00
62739;BME280;48788;48.074;13.000;2024-01-07T01:32:43;94582.13;;;-0.50;100.00
62739;BME280;48788;48.074;13.000;2024-01-07T01:35:09;94579.97;;;-0.46;100.00
62739;BME280;48788;48.074;13.000;2024-01-07T01:37:35;94583.22;;;-0.44;100.00
62739;BME280;48788;48.074;13.000;2024-01-07T01:40:00;94587.94;;;-0.48;100.00
62739;BME280;48788;48.074;13.000;2024-01-07T01:42:26;94586.16;;;-0.47;100.00
62739;BME280;48788;48.074;13.000;2024-01-07T01:44:51;94586.00;;;-0.46;100.00
62739;BME280;48788;48.074;13.000;2024-01-07T01:47:19;94586.00;;;-0.46;100.00
62739;BME280;48788;48.074;13.000;2024-01-07T01:49:45;94585.00;;;-0.45;100.00
62739;BME280;48788;48.074;13.000;2024-01-07T01:52:12;94585.53;;;-0.49;100.00
62739;BME280;48788;48.074;13.000;2024-01-07T01:54:39;94579.34;;;-0.48;100.00
62739;BME280;48788;48.074;13.000;2024-01-07T01:57:05;94580.13;;;-0.48;100.00
62739;BME280;48788;48.074;13.000;2024-01-07T01:59:33;94584.03;;;-0.44;100.00
62739;BME280;48788;48.074;13.000;2024-01-07T02:02:00;94581.28;;;-0.42;100.00
62739;BME280;48788;48.074;13.000;2024-01-07T02:04:26;94586.47;;;-0.42;100.00
62739;BME280;48788;48.074;13.000;2024-01-07T02:06:52;94581.91;;;-0.40;100.00
62739;BME280;48788;48.074;13.000;2024-01-07T02:09:17;94582.25;;;-0.43;100.00
62739;BME280;48788;48.074;13.000;2024-01-07T02:11:43;94584.19;;;-0.45;100.00
62739;BME280;48788;48.074;13.000;2024-01-07T02:14:08;94587.78;;;-0.46;100.00
62739;BME280;48788;48.074;13.000;2024-01-07T02:16:34;94583.38;;;-0.46;100.00
62739;BME280;48788;48.074;13.000;2024-01-07T02:18:59;94584.34;;;-0.47;100.00
62739;BME280;48788;48.074;13.000;2024-01-07T02:21:25;94581.63;;;-0.53;100.00
62739;BME280;48788;48.074;13.000;2024-01-07T02:23:50;94582.56;;;-0.46;100.00
62739;BME280;48788;48.074;13.000;2024-01-07T02:26:16;94584.34;;;-0.47;100.00
62739;BME280;48788;48.074;13.000;2024-01-07T02:28:41;94584.34;;;-0.47;100.00
62739;BME280;48788;48.074;13.000;2024-01-07T02:31:07;94579.81;;;-0.45;100.00
62739;BME280;48788;48.074;13.000;2024-01-07T02:33:32;94581.28;;;-0.42;100.00
62739;BME280;48788;48.074;13.000;2024-01-07T02:35:58;94581.59;;;-0.45;100.00
62739;BME280;48788;48.074;13.000;2024-01-07T02:38:23;94581.75;;;-0.47;100.00
62739;BME280;48788;48.074;13.000;2024-01-07T02:40:49;94583.53;;;-0.47;100.00
62739;BME280;48788;48.074;13.000;2024-01-07T02:43:14;94579.16;;;-0.47;100.00
62739;BME280;48788;48.074;13.000;2024-01-07T02:45:40;94582.13;;;-0.50;100.00
62739;BME280;48788;48.074;13.000;2024-01-07T02:48:05;94581.13;;;-0.49;100.00
62739;BME280;48788;48.074;13.000;2024-01-07T02:50:32;94579.50;;;-0.50;100.00
62739;BME280;48788;48.074;13.000;2024-01-07T02:52:58;94574.31;;;-0.50;100.00
62739;BME280;48788;48.074;13.000;2024-01-07T02:55:23;94577.72;;;-0.49;100.00
62739;BME280;48788;48.074;13.000;2024-01-07T02:57:49;94578.69;;;-0.50;100.00
62739;BME280;48788;48.074;13.000;2024-01-07T03:00:14;94585.34;;;-0.48;100.00
62739;BME280;48788;48.074;13.000;2024-01-07T03:02:40;94584.34;;;-0.47;100.00
62739;BME280;48788;48.074;13.000;2024-01-07T03:05:06;94577.88;;;-0.51;100.00
62739;BME280;48788;48.074;13.000;2024-01-07T03:07:31;94583.75;;;-0.49;100.00
62739;BME280;48788;48.074;13.000;2024-01-07T03:09:57;94578.53;;;-0.49;100.00
62739;BME280;48788;48.074;13.000;2024-01-07T03:12:23;94580.31;;;-0.49;100.00
62739;BME280;48788;48.074;13.000;2024-01-07T03:14:48;94574.16;;;-0.48;100.00
62739;BME280;48788;48.074;13.000;2024-01-07T03:17:14;94575.75;;;-0.47;100.00
62739;BME280;48788;48.074;13.000;2024-01-07T03:19:42;94585.69;;;-0.51;100.00
62739;BME280;48788;48.074;13.000;2024-01-07T03:22:07;94584.72;;;-0.50;100.00
62739;BME280;48788;48.074;13.000;2024-01-07T03:24:33;94582.28;;;-0.51;100.00
62739;BME280;48788;48.074;13.000;2024-01-07T03:26:59;94579.50;;;-0.50;100.00
62739;BME280;48788;48.074;13.000;2024-01-07T03:29:24;94583.09;;;-0.51;100.00
62739;BME280;48788;48.074;13.000;2024-01-07T03:31:49;94575.13;;;-0.49;100.00
62739;BME280;48788;48.074;13.000;2024-01-07T03:34:16;94576.75;;;-0.48;100.00
62739;BME280;48788;48.074;13.000;2024-01-07T03:36:41;94591.03;;;-0.44;100.00
62739;BME280;48788;48.074;13.000;2024-01-07T03:39:07;94583.88;;;-0.42;100.00
62739;BME280;48788;48.074;13.000;2024-01-07T03:41:32;94587.13;;;-0.40;100.00
62739;BME280;48788;48.074;13.000;2024-01-07T03:43:58;94580.13;;;-0.48;100.00
62739;BME280;48788;48.074;13.000;2024-01-07T03:46:23;94587.31;;;-0.50;100.00
62739;BME280;48788;48.074;13.000;2024-01-07T03:48:49;94590.91;;;-0.51;100.00
62739;BME280;48788;48.074;13.000;2024-01-07T03:51:14;94592.16;;;-0.47;100.00
62739;BME280;48788;48.074;13.000;2024-01-07T03:53:40;94587.63;;;-0.45;100.00
62739;BME280;48788;48.074;13.000;2024-01-07T03:56:05;94593.78;;;-0.46;100.00
62739;BME280;48788;48.074;13.000;2024-01-07T03:58:31;94585.53;;;-0.49;100.00
62739;BME280;48788;48.074;13.000;2024-01-07T04:00:57;94585.16;;;-0.46;100.00
62739;BME280;48788;48.074;13.000;2024-01-07T04:03:22;94592.16;;;-0.47;100.00
62739;BME280;48788;48.074;13.000;2024-01-07T04:05:48;94592.00;;;-0.45;100.00
62739;BME280;48788;48.074;13.000;2024-01-07T04:08:13;94597.56;;;-0.48;100.00
62739;BME280;48788;48.074;13.000;2024-01-07T04:10:41;94593.97;;;-0.47;100.00
62739;BME280;48788;48.074;13.000;2024-01-07T04:13:06;94596.06;;;-0.43;100.00
62739;BME280;48788;48.074;13.000;2024-01-07T04:15:32;94596.22;;;-0.44;100.00
62739;BME280;48788;48.074;13.000;2024-01-07T04:18:01;94600.31;;;-0.42;100.00
62739;BME280;48788;48.074;13.000;2024-01-07T04:20:26;94598.66;;;-0.43;100.00
62739;BME280;48788;48.074;13.000;2024-01-07T04:22:52;94593.34;;;-0.49;100.00
62739;BME280;48788;48.074;13.000;2024-01-07T04:25:17;94603.38;;;-0.46;100.00
62739;BME280;48788;48.074;13.000;2024-01-07T04:27:43;94604.56;;;-0.49;100.00
62739;BME280;48788;48.074;13.000;2024-01-07T04:30:09;94602.94;;;-0.50;100.00
62739;BME280;48788;48.074;13.000;2024-01-07T04:32:34;94604.38;;;-0.47;100.00
62739;BME280;48788;48.074;13.000;2024-01-07T04:35:00;94612.66;;;-0.44;100.00
62739;BME280;48788;48.074;13.000;2024-01-07T04:37:25;94614.78;;;-0.47;100.00
62739;BME280;48788;48.074;13.000;2024-01-07T04:39:51;94613.97;;;-0.48;100.00
62739;BME280;48788;48.074;13.000;2024-01-07T04:42:17;94616.41;;;-0.46;100.00
62739;BME280;48788;48.074;13.000;2024-01-07T04:44:43;94616.41;;;-0.46;100.00
62739;BME280;48788;48.074;13.000;2024-01-07T04:47:29;94614.97;;;-0.49;100.00
62739;BME280;48788;48.074;13.000;2024-01-07T04:49:59;94617.56;;;-0.49;100.00
62739;BME280;48788;48.074;13.000;2024-01-07T04:52:25;94618.69;;;-0.51;100.00
62739;BME280;48788;48.074;13.000;2024-01-07T04:54:54;94622.78;;;-0.49;100.00
62739;BME280;48788;48.074;13.000;2024-01-07T04:57:20;94620.97;;;-0.48;100.00
62739;BME280;48788;48.074;13.000;2024-01-07T04:59:47;94627.47;;;-0.52;100.00
62739;BME280;48788;48.074;13.000;2024-01-07T05:02:13;94628.31;;;-0.52;100.00
62739;BME280;48788;48.074;13.000;2024-01-07T05:04:38;94629.44;;;-0.54;100.00
62739;BME280;48788;48.074;13.000;2024-01-07T05:07:05;94634.47;;;-0.53;100.00
62739;BME280;48788;48.074;13.000;2024-01-07T05:09:34;94640.34;;;-0.51;100.00
62739;BME280;48788;48.074;13.000;2024-01-07T05:12:00;94641.31;;;-0.52;100.00
62739;BME280;48788;48.074;13.000;2024-01-07T05:14:25;94641.31;;;-0.52;100.00
62739;BME280;48788;48.074;13.000;2024-01-07T05:16:51;94641.47;;;-0.53;100.00
62739;BME280;48788;48.074;13.000;2024-01-07T05:19:16;94637.88;;;-0.52;100.00
62739;BME280;48788;48.074;13.000;2024-01-07T05:21:42;94642.13;;;-0.51;100.00
62739;BME280;48788;48.074;13.000;2024-01-07T05:24:07;94639.53;;;-0.51;100.00
62739;BME280;48788;48.074;13.000;2024-01-07T05:26:41;94643.91;;;-0.52;100.00
62739;BME280;48788;48.074;13.000;2024-01-07T05:29:07;94642.13;;;-0.51;100.00
62739;BME280;48788;48.074;13.000;2024-01-07T05:31:32;94645.53;;;-0.51;100.00
62739;BME280;48788;48.074;13.000;2024-01-07T05:33:58;94642.28;;;-0.53;100.00
62739;BME280;48788;48.074;13.000;2024-01-07T05:36:23;94645.53;;;-0.51;100.00
62739;BME280;48788;48.074;13.000;2024-01-07T05:38:49;94646.50;;;-0.52;100.00
62739;BME280;48788;48.074;13.000;2024-01-07T05:41:14;94647.16;;;-0.50;100.00
62739;BME280;48788;48.074;13.000;2024-01-07T05:43:40;94647.50;;;-0.53;100.00
62739;BME280;48788;48.074;13.000;2024-01-07T05:46:05;94657.72;;;-0.51;100.00
62739;BME280;48788;48.074;13.000;2024-01-07T05:48:41;94654.31;;;-0.52;100.00
62739;BME280;48788;48.074;13.000;2024-01-07T05:51:07;94648.63;;;-0.55;100.00
62739;BME280;48788;48.074;13.000;2024-01-07T05:53:34;94651.06;;;-0.54;100.00
62739;BME280;48788;48.074;13.000;2024-01-07T05:56:00;94656.28;;;-0.54;100.00
62739;BME280;48788;48.074;13.000;2024-01-07T05:58:25;94663.56;;;-0.57;100.00
62739;BME280;48788;48.074;13.000;2024-01-07T06:00:51;94663.91;;;-0.52;100.00
62739;BME280;48788;48.074;13.000;2024-01-07T06:03:16;94668.47;;;-0.54;100.00
62739;BME280;48788;48.074;13.000;2024-01-07T06:05:41;94657.41;;;-0.56;100.00
62739;BME280;48788;48.074;13.000;2024-01-07T06:08:07;94668.47;;;-0.54;100.00
62739;BME280;48788;48.074;13.000;2024-01-07T06:10:32;94659.03;;;-0.55;100.00
62739;BME280;48788;48.074;13.000;2024-01-07T06:12:58;94667.81;;;-0.56;100.00
62739;BME280;48788;48.074;13.000;2024-01-07T06:15:23;94667.81;;;-0.56;100.00
62739;BME280;48788;48.074;13.000;2024-01-07T06:17:49;94668.63;;;-0.56;100.00
62739;BME280;48788;48.074;13.000;2024-01-07T06:20:14;94664.22;;;-0.55;100.00
62739;BME280;48788;48.074;13.000;2024-01-07T06:22:40;94671.72;;;-0.60;100.00
62739;BME280;48788;48.074;13.000;2024-01-07T06:25:06;94664.38;;;-0.57;100.00
62739;BME280;48788;48.074;13.000;2024-01-07T06:27:31;94671.06;;;-0.54;100.00
62739;BME280;48788;48.074;13.000;2024-01-07T06:29:57;94674.47;;;-0.54;100.00
62739;BME280;48788;48.074;13.000;2024-01-07T06:32:22;94669.44;;;-0.55;100.00
62739;BME280;48788;48.074;13.000;2024-01-07T06:34:50;94671.06;;;-0.54;100.00
62739;BME280;48788;48.074;13.000;2024-01-07T06:37:15;94679.84;;;-0.55;100.00
62739;BME280;48788;48.074;13.000;2024-01-07T06:39:41;94684.41;;;-0.57;100.00
62739;BME280;48788;48.074;13.000;2024-01-07T06:42:06;94690.09;;;-0.54;100.00
62739;BME280;48788;48.074;13.000;2024-01-07T06:44:32;94691.72;;;-0.53;100.00
62739;BME280;48788;48.074;13.000;2024-01-07T06:46:57;94695.28;;;-0.54;100.00
62739;BME280;48788;48.074;13.000;2024-01-07T06:49:23;94691.88;;;-0.54;100.00
62739;BME280;48788;48.074;13.000;2024-01-07T06:51:48;94700.19;;;-0.59;100.00
62739;BME280;48788;48.074;13.000;2024-01-07T06:54:14;94696.63;;;-0.58;100.00
62739;BME280;48788;48.074;13.000;2024-01-07T06:56:39;94699.84;;;-0.56;100.00
62739;BME280;48788;48.074;13.000;2024-01-07T06:59:05;94704.88;;;-0.54;100.00
62739;BME280;48788;48.074;13.000;2024-01-07T07:01:30;94701.16;;;-0.60;100.00
62739;BME280;48788;48.074;13.000;2024-01-07T07:03:56;94714.31;;;-0.53;100.00
62739;BME280;48788;48.074;13.000;2024-01-07T07:06:21;94711.88;;;-0.55;100.00
62739;BME280;48788;48.074;13.000;2024-01-07T07:08:46;94714.81;;;-0.58;100.00
62739;BME280;48788;48.074;13.000;2024-01-07T07:11:12;94715.28;;;-0.54;100.00
62739;BME280;48788;48.074;13.000;2024-01-07T07:13:37;94711.56;;;-0.52;100.00
62739;BME280;48788;48.074;13.000;2024-01-07T07:16:03;94713.34;;;-0.52;100.00
62739;BME280;48788;48.074;13.000;2024-01-07T07:18:29;94716.75;;;-0.52;100.00
62739;BME280;48788;48.074;13.000;2024-01-07T07:20:54;94720.19;;;-0.51;100.00
62739;BME280;48788;48.074;13.000;2024-01-07T07:23:20;94720.84;;;-0.49;100.00
62739;BME280;48788;48.074;13.000;2024-01-07T07:25:45;94730.59;;;-0.51;100.00
62739;BME280;48788;48.074;13.000;2024-01-07T07:28:11;94734.81;;;-0.50;100.00
62739;BME280;48788;48.074;13.000;2024-01-07T07:30:36;94737.25;;;-0.49;100.00
62739;BME280;48788;48.074;13.000;2024-01-07T07:33:02;94740.69;;;-0.48;100.00
62739;BME280;48788;48.074;13.000;2024-01-07T07:35:28;94743.44;;;-0.50;100.00
62739;BME280;48788;48.074;13.000;2024-01-07T07:37:54;94748.13;;;-0.45;100.00
62739;BME280;48788;48.074;13.000;2024-01-07T07:40:20;94753.69;;;-0.48;100.00
62739;BME280;48788;48.074;13.000;2024-01-07T07:42:46;94756.91;;;-0.46;100.00
62739;BME280;48788;48.074;13.000;2024-01-07T07:45:11;94755.94;;;-0.45;100.00
62739;BME280;48788;48.074;13.000;2024-01-07T07:47:37;94765.22;;;-0.43;100.00
62739;BME280;48788;48.074;13.000;2024-01-07T07:50:02;94763.44;;;-0.42;100.00
62739;BME280;48788;48.074;13.000;2024-01-07T07:52:28;94760.69;;;-0.41;100.00
62739;BME280;48788;48.074;13.000;2024-01-07T07:54:54;94762.75;;;-0.28;100.00
62739;BME280;48788;48.074;13.000;2024-01-07T07:57:20;94762.44;;;-0.25;100.00
62739;BME280;48788;48.074;13.000;2024-01-07T07:59:47;94766.00;;;-0.26;100.00
62739;BME280;48788;48.074;13.000;2024-01-07T08:02:13;94769.28;;;-0.24;100.00
62739;BME280;48788;48.074;13.000;2024-01-07T08:04:38;94775.94;;;-0.21;100.00
62739;BME280;48788;48.074;13.000;2024-01-07T08:07:07;94773.50;;;-0.23;100.00
62739;BME280;48788;48.074;13.000;2024-01-07T08:09:32;94777.72;;;-0.22;100.00
62739;BME280;48788;48.074;13.000;2024-01-07T08:11:58;94783.75;;;-0.21;100.00
62739;BME280;48788;48.074;13.000;2024-01-07T08:14:23;94781.47;;;-0.16;100.00
62739;BME280;48788;48.074;13.000;2024-01-07T08:16:49;94783.75;;;-0.21;100.00
62739;BME280;48788;48.074;13.000;2024-01-07T08:19:14;94785.38;;;-0.20;100.00
62739;BME280;48788;48.074;13.000;2024-01-07T08:21:40;94793.34;;;-0.22;100.00
62739;BME280;48788;48.074;13.000;2024-01-07T08:24:05;94792.84;;;-0.17;100.00
62739;BME280;48788;48.074;13.000;2024-01-07T08:26:31;94791.41;;;-0.20;100.00
62739;BME280;48788;48.074;13.000;2024-01-07T08:28:56;94785.19;;;-0.19;100.00
62739;BME280;48788;48.074;13.000;2024-01-07T08:31:22;94791.88;;;-0.16;100.00
62739;BME280;48788;48.074;13.000;2024-01-07T08:33:47;94803.25;;;-0.17;100.00
62739;BME280;48788;48.074;13.000;2024-01-07T08:36:13;94801.63;;;-0.18;100.00
62739;BME280;48788;48.074;13.000;2024-01-07T08:38:38;94804.25;;;-0.10;100.00
62739;BME280;48788;48.074;13.000;2024-01-07T08:41:04;94807.19;;;-0.13;100.00
62739;BME280;48788;48.074;13.000;2024-01-07T08:43:30;94811.41;;;-0.12;100.00
62739;BME280;48788;48.074;13.000;2024-01-07T08:45:55;94809.28;;;-0.09;100.00
62739;BME280;48788;48.074;13.000;2024-01-07T08:48:21;94819.53;;;-0.07;100.00
62739;BME280;48788;48.074;13.000;2024-01-07T08:50:46;94821.16;;;-0.06;100.00
62739;BME280;48788;48.074;13.000;2024-01-07T08:53:11;94817.72;;;-0.07;100.00
62739;BME280;48788;48.074;13.000;2024-01-07T08:55:37;94826.03;;;-0.03;100.00
62739;BME280;48788;48.074;13.000;2024-01-07T08:58:03;94820.34;;;-0.07;100.00
62739;BME280;48788;48.074;13.000;2024-01-07T09:00:28;94827.66;;;-0.02;100.00
62739;BME280;48788;48.074;13.000;2024-01-07T09:02:56;94834.31;;;0.00;100.00
62739;BME280;48788;48.074;13.000;2024-01-07T09:05:22;94829.94;;;0.01;100.00
62739;BME280;48788;48.074;13.000;2024-01-07T09:07:49;94827.16;;;0.03;100.00
62739;BME280;48788;48.074;13.000;2024-01-07T09:10:15;94833.53;;;0.08;100.00
62739;BME280;48788;48.074;13.000;2024-01-07T09:12:41;94826.50;;;0.17;100.00
62739;BME280;48788;48.074;13.000;2024-01-07T09:15:07;94836.59;;;0.28;100.00
62739;BME280;48788;48.074;13.000;2024-01-07T09:17:38;94837.88;;;0.24;100.00
62739;BME280;48788;48.074;13.000;2024-01-07T09:20:05;94838.38;;;0.19;100.00
62739;BME280;48788;48.074;13.000;2024-01-07T09:22:33;94834.81;;;0.12;100.00
62739;BME280;48788;48.074;13.000;2024-01-07T09:25:00;94848.31;;;0.16;100.00
62739;BME280;48788;48.074;13.000;2024-01-07T09:27:26;94843.09;;;0.16;100.00
62739;BME280;48788;48.074;13.000;2024-01-07T09:29:51;94850.75;;;0.17;100.00
62739;BME280;48788;48.074;13.000;2024-01-07T09:32:17;94855.00;;;0.18;100.00
62739;BME280;48788;48.074;13.000;2024-01-07T09:34:42;94846.84;;;0.21;100.00
62739;BME280;48788;48.074;13.000;2024-01-07T09:37:09;94863.63;;;0.27;100.00
62739;BME280;48788;48.074;13.000;2024-01-07T09:39:39;94855.25;;;0.40;100.00
62739;BME280;48788;48.074;13.000;2024-01-07T09:42:07;94848.94;;;0.34;100.00
62739;BME280;48788;48.074;13.000;2024-01-07T09:44:35;94855.47;;;0.38;100.00
62739;BME280;48788;48.074;13.000;2024-01-07T09:47:01;94855.13;;;0.33;100.00
62739;BME280;48788;48.074;13.000;2024-01-07T09:49:26;94854.81;;;0.36;100.00
62739;BME280;48788;48.074;13.000;2024-01-07T09:51:56;94859.16;;;0.52;100.00
62739;BME280;48788;48.074;13.000;2024-01-07T09:54:24;94858.66;;;0.48;100.00
62739;BME280;48788;48.074;13.000;2024-01-07T09:56:55;94859.47;;;0.49;100.00
62739;BME280;48788;48.074;13.000;2024-01-07T09:59:21;94858.00;;;0.54;100.00
62739;BME280;48788;48.074;13.000;2024-01-07T10:01:48;94866.00;;;0.53;100.00
62739;BME280;48788;48.074;13.000;2024-01-07T10:04:14;94856.22;;;0.55;100.00
62739;BME280;48788;48.074;13.000;2024-01-07T10:06:39;94857.81;;;0.64;100.00
62739;BME280;48788;48.074;13.000;2024-01-07T10:09:06;94846.03;;;0.84;100.00
62739;BME280;48788;48.074;13.000;2024-01-07T10:11:32;94858.56;;;0.81;100.00
62739;BME280;48788;48.074;13.000;2024-01-07T10:13:58;94856.59;;;0.91;100.00
62739;BME280;48788;48.074;13.000;2024-01-07T10:16:23;94861.75;;;0.99;100.00
62739;BME280;48788;48.074;13.000;2024-01-07T10:18:49;94860.03;;;0.83;100.00
62739;BME280;48788;48.074;13.000;2024-01-07T10:21:14;94872.25;;;0.83;100.00
62739;BME280;48788;48.074;13.000;2024-01-07T10:23:40;94863.59;;;0.90;100.00
62739;BME280;48788;48.074;13.000;2024-01-07T10:26:06;94869.31;;;0.86;100.00
62739;BME280;48788;48.074;13.000;2024-01-07T10:28:32;94861.47;;;0.94;100.00
62739;BME280;48788;48.074;13.000;2024-01-07T10:30:57;94869.28;;;0.94;100.00
62739;BME280;48788;48.074;13.000;2024-01-07T10:33:23;94871.13;;;0.85;100.00
62739;BME280;48788;48.074;13.000;2024-01-07T10:35:57;94870.63;;;0.82;100.00
62739;BME280;48788;48.074;13.000;2024-01-07T10:38:25;94873.28;;;0.73;100.00
62739;BME280;48788;48.074;13.000;2024-01-07T10:40:53;94874.38;;;0.79;100.00
62739;BME280;48788;48.074;13.000;2024-01-07T10:43:20;94873.00;;;0.99;100.00
62739;BME280;48788;48.074;13.000;2024-01-07T10:45:47;94877.78;;;0.88;100.00
62739;BME280;48788;48.074;13.000;2024-01-07T10:48:19;94877.97;;;0.78;100.00
62739;BME280;48788;48.074;13.000;2024-01-07T10:50:46;94882.00;;;0.89;100.00
62739;BME280;48788;48.074;13.000;2024-01-07T10:53:18;94881.97;;;1.05;100.00
62739;BME280;48788;48.074;13.000;2024-01-07T10:55:59;94877.19;;;1.08;100.00
62739;BME280;48788;48.074;13.000;2024-01-07T10:58:25;94880.00;;;0.99;100.00
62739;BME280;48788;48.074;13.000;2024-01-07T11:00:51;94888.00;;;0.97;100.00
62739;BME280;48788;48.074;13.000;2024-01-07T11:06:31;94888.50;;;1.01;100.00
62739;BME280;48788;48.074;13.000;2024-01-07T11:09:03;94883.44;;;0.99;100.00
62739;BME280;48788;48.074;13.000;2024-01-07T11:11:41;94888.31;;;1.02;100.00
62739;BME280;48788;48.074;13.000;2024-01-07T11:17:03;94884.00;;;0.79;100.00
62739;BME280;48788;48.074;13.000;2024-01-07T11:19:29;94881.13;;;0.65;100.00
62739;BME280;48788;48.074;13.000;2024-01-07T11:24:53;94889.63;;;0.51;100.00
62739;BME280;48788;48.074;13.000;2024-01-07T11:27:21;94882.94;;;0.49;100.00
62739;BME280;48788;48.074;13.000;2024-01-07T11:32:46;94882.75;;;0.58;100.00
62739;BME280;48788;48.074;13.000;2024-01-07T11:35:12;94885.72;;;0.55;100.00
62739;BME280;48788;48.074;13.000;2024-01-07T11:37:38;94887.31;;;0.64;100.00
62739;BME280;48788;48.074;13.000;2024-01-07T11:40:06;94884.50;;;0.74;100.00
62739;BME280;48788;48.074;13.000;2024-01-07T11:42:32;94890.72;;;0.73;100.00
62739;BME280;48788;48.074;13.000;2024-01-07T11:44:58;94891.97;;;0.77;100.00
62739;BME280;48788;48.074;13.000;2024-01-07T11:47:24;94891.97;;;0.85;100.00
62739;BME280;48788;48.074;13.000;2024-01-07T11:49:53;94901.69;;;0.99;100.00
62739;BME280;48788;48.074;13.000;2024-01-07T11:52:19;94898.63;;;0.88;100.00
62739;BME280;48788;48.074;13.000;2024-01-07T11:54:46;94902.06;;;0.88;100.00
62739;BME280;48788;48.074;13.000;2024-01-07T11:57:13;94899.84;;;0.69;100.00
62739;BME280;48788;48.074;13.000;2024-01-07T11:59:38;94902.41;;;0.77;100.00
62739;BME280;48788;48.074;13.000;2024-01-07T12:02:04;94901.94;;;0.73;100.00
62739;BME280;48788;48.074;13.000;2024-01-07T12:04:33;94907.34;;;0.64;100.00
62739;BME280;48788;48.074;13.000;2024-01-07T12:06:59;94900.50;;;0.63;100.00
62739;BME280;48788;48.074;13.000;2024-01-07T12:09:26;94904.59;;;0.65;100.00
62739;BME280;48788;48.074;13.000;2024-01-07T12:11:52;94904.94;;;0.54;100.00
62739;BME280;48788;48.074;13.000;2024-01-07T12:14:18;94907.38;;;0.56;100.00
62739;BME280;48788;48.074;13.000;2024-01-07T12:16:44;94909.31;;;0.54;100.00
62739;BME280;48788;48.074;13.000;2024-01-07T12:19:11;94913.72;;;0.53;100.00
62739;BME280;48788;48.074;13.000;2024-01-07T12:21:36;94914.84;;;0.59;100.00
62739;BME280;48788;48.074;13.000;2024-01-07T12:24:03;94916.31;;;0.61;100.00
62739;BME280;48788;48.074;13.000;2024-01-07T12:26:29;94903.78;;;0.57;100.00
62739;BME280;48788;48.074;13.000;2024-01-07T12:28:57;94918.25;;;0.59;100.00
62739;BME280;48788;48.074;13.000;2024-01-07T12:31:32;94918.44;;;0.66;100.00
62739;BME280;48788;48.074;13.000;2024-01-07T12:33:58;94921.66;;;0.84;100.00
62739;BME280;48788;48.074;13.000;2024-01-07T12:36:24;94933.53;;;0.79;100.00
62739;BME280;48788;48.074;13.000;2024-01-07T12:38:51;94929.84;;;0.57;100.00
62739;BME280;48788;48.074;13.000;2024-01-07T12:41:19;94930.19;;;0.46;100.00
62739;BME280;48788;48.074;13.000;2024-01-07T12:43:44;94931.47;;;0.50;100.00
62739;BME280;48788;48.074;13.000;2024-01-07T12:46:10;94938.66;;;0.56;100.00
62739;BME280;48788;48.074;13.000;2024-01-07T12:48:35;94938.16;;;0.52;100.00